sensor_id;sensor_type;location;lat;lon;timestamp;P1;durP1;ratioP1;P2;durP2;ratioP2
4112;SDS011;2070;51.042;7.056;2022-08-07T00:00:37;2.40;;;1.00;;
4112;SDS011;2070;51.042;7.056;2022-08-07T00:03:02;1.00;;;0.53;;
4112;SDS011;2070;51.042;7.056;2022-08-07T00:05:28;1.93;;;1.00;;
4112;SDS011;2070;51.042;7.056;2022-08-07T00:07:53;1.87;;;0.77;;
4112;SDS011;2070;51.042;7.056;2022-08-07T00:10:19;1.10;;;0.70;;
4112;SDS011;2070;51.042;7.056;2022-08-07T00:12:44;1.10;;;0.80;;
4112;SDS011;2070;51.042;7.056;2022-08-07T00:15:10;0.90;;;0.70;;
4112;SDS011;2070;51.042;7.056;2022-08-07T00:17:35;5.37;;;1.43;;
4112;SDS011;2070;51.042;7.056;2022-08-07T00:20:01;1.37;;;0.90;;
4112;SDS011;2070;51.042;7.056;2022-08-07T00:22:26;1.10;;;0.87;;
4112;SDS011;2070;51.042;7.056;2022-08-07T00:24:51;1.73;;;0.80;;
4112;SDS011;2070;51.042;7.056;2022-08-07T00:27:16;1.33;;;0.50;;
4112;SDS011;2070;51.042;7.056;2022-08-07T00:29:42;1.73;;;1.07;;
4112;SDS011;2070;51.042;7.056;2022-08-07T00:32:07;1.37;;;0.90;;
4112;SDS011;2070;51.042;7.056;2022-08-07T00:34:32;1.83;;;0.80;;
4112;SDS011;2070;51.042;7.056;2022-08-07T00:36:58;3.93;;;0.83;;
4112;SDS011;2070;51.042;7.056;2022-08-07T00:39:23;2.60;;;1.30;;
4112;SDS011;2070;51.042;7.056;2022-08-07T00:41:52;1.13;;;0.73;;
4112;SDS011;2070;51.042;7.056;2022-08-07T00:44:18;1.10;;;0.80;;
4112;SDS011;2070;51.042;7.056;2022-08-07T00:46:43;1.30;;;1.00;;
4112;SDS011;2070;51.042;7.056;2022-08-07T00:49:08;3.20;;;1.00;;
4112;SDS011;2070;51.042;7.056;2022-08-07T00:51:34;1.57;;;1.30;;
4112;SDS011;2070;51.042;7.056;2022-08-07T00:53:59;1.30;;;1.00;;
4112;SDS011;2070;51.042;7.056;2022-08-07T00:56:24;3.10;;;1.20;;
4112;SDS011;2070;51.042;7.056;2022-08-07T00:58:49;1.40;;;0.90;;
4112;SDS011;2070;51.042;7.056;2022-08-07T01:01:15;2.43;;;1.10;;
4112;SDS011;2070;51.042;7.056;2022-08-07T01:03:40;3.37;;;0.93;;
4112;SDS011;2070;51.042;7.056;2022-08-07T01:06:06;1.37;;;1.07;;
4112;SDS011;2070;51.042;7.056;2022-08-07T01:08:32;3.00;;;0.73;;
4112;SDS011;2070;51.042;7.056;2022-08-07T01:10:57;1.63;;;1.00;;
4112;SDS011;2070;51.042;7.056;2022-08-07T01:13:22;8.77;;;1.03;;
4112;SDS011;2070;51.042;7.056;2022-08-07T01:15:48;2.80;;;1.00;;
4112;SDS011;2070;51.042;7.056;2022-08-07T01:18:14;5.13;;;1.10;;
4112;SDS011;2070;51.042;7.056;2022-08-07T01:20:44;3.67;;;0.90;;
4112;SDS011;2070;51.042;7.056;2022-08-07T01:23:10;7.47;;;1.50;;
4112;SDS011;2070;51.042;7.056;2022-08-07T01:25:36;4.00;;;1.47;;
4112;SDS011;2070;51.042;7.056;2022-08-07T01:28:02;1.50;;;0.87;;
4112;SDS011;2070;51.042;7.056;2022-08-07T01:30:27;1.13;;;1.03;;
4112;SDS011;2070;51.042;7.056;2022-08-07T01:32:53;1.20;;;0.80;;
4112;SDS011;2070;51.042;7.056;2022-08-07T01:35:19;1.40;;;1.30;;
4112;SDS011;2070;51.042;7.056;2022-08-07T01:37:44;1.10;;;0.80;;
4112;SDS011;2070;51.042;7.056;2022-08-07T01:40:10;2.30;;;0.83;;
4112;SDS011;2070;51.042;7.056;2022-08-07T01:42:36;1.13;;;1.03;;
4112;SDS011;2070;51.042;7.056;2022-08-07T01:45:03;4.43;;;0.87;;
4112;SDS011;2070;51.042;7.056;2022-08-07T01:47:28;1.23;;;0.70;;
4112;SDS011;2070;51.042;7.056;2022-08-07T01:49:54;3.70;;;0.87;;
4112;SDS011;2070;51.042;7.056;2022-08-07T01:52:19;1.93;;;1.10;;
4112;SDS011;2070;51.042;7.056;2022-08-07T01:54:47;1.10;;;1.00;;
4112;SDS011;2070;51.042;7.056;2022-08-07T01:57:16;1.80;;;0.83;;
4112;SDS011;2070;51.042;7.056;2022-08-07T01:59:45;1.10;;;0.70;;
4112;SDS011;2070;51.042;7.056;2022-08-07T02:02:12;3.10;;;0.90;;
4112;SDS011;2070;51.042;7.056;2022-08-07T02:04:43;2.97;;;0.90;;
4112;SDS011;2070;51.042;7.056;2022-08-07T02:07:11;1.00;;;0.80;;
4112;SDS011;2070;51.042;7.056;2022-08-07T02:09:37;1.30;;;1.07;;
4112;SDS011;2070;51.042;7.056;2022-08-07T02:12:03;2.60;;;0.70;;
4112;SDS011;2070;51.042;7.056;2022-08-07T02:14:41;1.00;;;0.73;;
4112;SDS011;2070;51.042;7.056;2022-08-07T02:17:08;3.50;;;0.90;;
4112;SDS011;2070;51.042;7.056;2022-08-07T02:19:34;2.90;;;0.70;;
4112;SDS011;2070;51.042;7.056;2022-08-07T02:22:00;4.20;;;1.17;;
4112;SDS011;2070;51.042;7.056;2022-08-07T02:24:26;0.80;;;0.60;;
4112;SDS011;2070;51.042;7.056;2022-08-07T02:26:52;1.77;;;1.07;;
4112;SDS011;2070;51.042;7.056;2022-08-07T02:29:18;2.43;;;0.83;;
4112;SDS011;2070;51.042;7.056;2022-08-07T02:31:43;1.13;;;1.00;;
4112;SDS011;2070;51.042;7.056;2022-08-07T02:34:09;1.20;;;0.70;;
4112;SDS011;2070;51.042;7.056;2022-08-07T02:36:35;1.00;;;0.90;;
4112;SDS011;2070;51.042;7.056;2022-08-07T02:39:02;10.37;;;1.10;;
4112;SDS011;2070;51.042;7.056;2022-08-07T02:41:27;4.30;;;0.90;;
4112;SDS011;2070;51.042;7.056;2022-08-07T02:43:53;4.00;;;1.00;;
4112;SDS011;2070;51.042;7.056;2022-08-07T02:46:20;1.37;;;1.00;;
4112;SDS011;2070;51.042;7.056;2022-08-07T02:48:47;3.53;;;0.90;;
4112;SDS011;2070;51.042;7.056;2022-08-07T02:51:13;1.20;;;0.90;;
4112;SDS011;2070;51.042;7.056;2022-08-07T02:53:41;3.53;;;1.53;;
4112;SDS011;2070;51.042;7.056;2022-08-07T02:56:07;1.20;;;1.00;;
4112;SDS011;2070;51.042;7.056;2022-08-07T02:58:35;1.33;;;0.93;;
4112;SDS011;2070;51.042;7.056;2022-08-07T03:01:02;1.93;;;0.97;;
4112;SDS011;2070;51.042;7.056;2022-08-07T03:03:29;0.90;;;0.70;;
4112;SDS011;2070;51.042;7.056;2022-08-07T03:05:55;1.00;;;0.83;;
4112;SDS011;2070;51.042;7.056;2022-08-07T03:08:21;1.40;;;0.80;;
4112;SDS011;2070;51.042;7.056;2022-08-07T03:10:46;0.90;;;0.70;;
4112;SDS011;2070;51.042;7.056;2022-08-07T03:13:15;1.63;;;0.87;;
4112;SDS011;2070;51.042;7.056;2022-08-07T03:15:40;2.40;;;1.27;;
4112;SDS011;2070;51.042;7.056;2022-08-07T03:18:06;5.63;;;0.80;;
4112;SDS011;2070;51.042;7.056;2022-08-07T03:20:32;1.00;;;0.87;;
4112;SDS011;2070;51.042;7.056;2022-08-07T03:22:57;1.30;;;0.80;;
4112;SDS011;2070;51.042;7.056;2022-08-07T03:25:23;1.17;;;1.07;;
4112;SDS011;2070;51.042;7.056;2022-08-07T03:27:49;1.57;;;1.30;;
4112;SDS011;2070;51.042;7.056;2022-08-07T03:30:15;2.17;;;0.80;;
4112;SDS011;2070;51.042;7.056;2022-08-07T03:32:41;1.00;;;0.90;;
4112;SDS011;2070;51.042;7.056;2022-08-07T03:35:09;3.83;;;1.10;;
4112;SDS011;2070;51.042;7.056;2022-08-07T03:37:36;2.03;;;1.20;;
4112;SDS011;2070;51.042;7.056;2022-08-07T03:40:02;0.90;;;0.70;;
4112;SDS011;2070;51.042;7.056;2022-08-07T03:42:28;1.50;;;1.33;;
4112;SDS011;2070;51.042;7.056;2022-08-07T03:44:54;3.17;;;0.80;;
4112;SDS011;2070;51.042;7.056;2022-08-07T03:47:19;1.70;;;1.20;;
4112;SDS011;2070;51.042;7.056;2022-08-07T03:49:45;3.13;;;1.03;;
4112;SDS011;2070;51.042;7.056;2022-08-07T03:52:11;1.60;;;0.70;;
4112;SDS011;2070;51.042;7.056;2022-08-07T03:54:37;1.40;;;1.20;;
4112;SDS011;2070;51.042;7.056;2022-08-07T03:57:03;1.50;;;1.20;;
4112;SDS011;2070;51.042;7.056;2022-08-07T03:59:28;1.07;;;0.97;;
4112;SDS011;2070;51.042;7.056;2022-08-07T04:01:54;1.10;;;1.00;;
4112;SDS011;2070;51.042;7.056;2022-08-07T04:04:20;1.30;;;0.80;;
4112;SDS011;2070;51.042;7.056;2022-08-07T04:06:45;7.67;;;1.53;;
4112;SDS011;2070;51.042;7.056;2022-08-07T04:09:11;8.33;;;1.93;;
4112;SDS011;2070;51.042;7.056;2022-08-07T04:11:37;3.47;;;1.10;;
4112;SDS011;2070;51.042;7.056;2022-08-07T04:14:02;3.30;;;1.87;;
4112;SDS011;2070;51.042;7.056;2022-08-07T04:16:28;1.23;;;1.10;;
4112;SDS011;2070;51.042;7.056;2022-08-07T04:18:53;1.40;;;1.30;;
4112;SDS011;2070;51.042;7.056;2022-08-07T04:21:19;16.73;;;1.23;;
4112;SDS011;2070;51.042;7.056;2022-08-07T04:23:44;1.57;;;1.10;;
4112;SDS011;2070;51.042;7.056;2022-08-07T04:26:10;1.47;;;1.20;;
4112;SDS011;2070;51.042;7.056;2022-08-07T04:28:36;1.67;;;1.03;;
4112;SDS011;2070;51.042;7.056;2022-08-07T04:31:01;3.43;;;1.00;;
4112;SDS011;2070;51.042;7.056;2022-08-07T04:33:27;4.27;;;1.50;;
4112;SDS011;2070;51.042;7.056;2022-08-07T04:35:52;1.77;;;0.93;;
4112;SDS011;2070;51.042;7.056;2022-08-07T04:38:18;1.03;;;0.93;;
4112;SDS011;2070;51.042;7.056;2022-08-07T04:40:44;9.50;;;1.40;;
4112;SDS011;2070;51.042;7.056;2022-08-07T04:43:09;1.10;;;1.00;;
4112;SDS011;2070;51.042;7.056;2022-08-07T04:48:22;1.70;;;1.33;;
4112;SDS011;2070;51.042;7.056;2022-08-07T04:53:26;1.30;;;1.17;;
4112;SDS011;2070;51.042;7.056;2022-08-07T04:56:00;1.00;;;0.90;;
4112;SDS011;2070;51.042;7.056;2022-08-07T05:01:08;1.00;;;0.90;;
4112;SDS011;2070;51.042;7.056;2022-08-07T05:06:16;5.33;;;1.33;;
4112;SDS011;2070;51.042;7.056;2022-08-07T05:08:46;1.43;;;1.10;;
4112;SDS011;2070;51.042;7.056;2022-08-07T05:11:19;1.23;;;1.07;;
4112;SDS011;2070;51.042;7.056;2022-08-07T05:13:50;1.20;;;1.10;;
4112;SDS011;2070;51.042;7.056;2022-08-07T05:16:17;0.90;;;0.70;;
4112;SDS011;2070;51.042;7.056;2022-08-07T05:18:46;1.33;;;0.80;;
4112;SDS011;2070;51.042;7.056;2022-08-07T05:21:12;2.80;;;1.00;;
4112;SDS011;2070;51.042;7.056;2022-08-07T05:23:39;3.43;;;1.30;;
4112;SDS011;2070;51.042;7.056;2022-08-07T05:26:05;1.10;;;1.00;;
4112;SDS011;2070;51.042;7.056;2022-08-07T05:28:34;1.30;;;1.20;;
4112;SDS011;2070;51.042;7.056;2022-08-07T05:31:00;1.17;;;1.07;;
4112;SDS011;2070;51.042;7.056;2022-08-07T05:33:26;1.63;;;1.27;;
4112;SDS011;2070;51.042;7.056;2022-08-07T05:35:52;1.10;;;0.93;;
4112;SDS011;2070;51.042;7.056;2022-08-07T05:38:19;1.10;;;0.90;;
4112;SDS011;2070;51.042;7.056;2022-08-07T05:40:46;1.30;;;1.20;;
4112;SDS011;2070;51.042;7.056;2022-08-07T05:43:11;6.07;;;3.13;;
4112;SDS011;2070;51.042;7.056;2022-08-07T05:45:37;1.00;;;0.87;;
4112;SDS011;2070;51.042;7.056;2022-08-07T05:48:03;1.70;;;1.00;;
4112;SDS011;2070;51.042;7.056;2022-08-07T05:50:29;1.07;;;0.90;;
4112;SDS011;2070;51.042;7.056;2022-08-07T05:52:54;0.80;;;0.60;;
4112;SDS011;2070;51.042;7.056;2022-08-07T05:55:19;1.33;;;0.90;;
4112;SDS011;2070;51.042;7.056;2022-08-07T05:57:45;1.23;;;1.00;;
4112;SDS011;2070;51.042;7.056;2022-08-07T06:00:11;2.90;;;1.30;;
4112;SDS011;2070;51.042;7.056;2022-08-07T06:02:37;0.97;;;0.87;;
4112;SDS011;2070;51.042;7.056;2022-08-07T06:05:07;6.30;;;0.87;;
4112;SDS011;2070;51.042;7.056;2022-08-07T06:07:34;1.00;;;0.80;;
4112;SDS011;2070;51.042;7.056;2022-08-07T06:09:59;1.00;;;0.80;;
4112;SDS011;2070;51.042;7.056;2022-08-07T06:12:24;1.20;;;1.10;;
4112;SDS011;2070;51.042;7.056;2022-08-07T06:14:50;1.20;;;1.10;;
4112;SDS011;2070;51.042;7.056;2022-08-07T06:17:16;5.20;;;1.17;;
4112;SDS011;2070;51.042;7.056;2022-08-07T06:19:42;1.30;;;0.90;;
4112;SDS011;2070;51.042;7.056;2022-08-07T06:22:07;0.93;;;0.80;;
4112;SDS011;2070;51.042;7.056;2022-08-07T06:24:32;1.60;;;1.00;;
4112;SDS011;2070;51.042;7.056;2022-08-07T06:26:58;1.57;;;0.97;;
4112;SDS011;2070;51.042;7.056;2022-08-07T06:29:26;1.13;;;0.93;;
4112;SDS011;2070;51.042;7.056;2022-08-07T06:31:52;0.93;;;0.73;;
4112;SDS011;2070;51.042;7.056;2022-08-07T06:34:17;3.33;;;0.70;;
4112;SDS011;2070;51.042;7.056;2022-08-07T06:36:42;4.53;;;0.90;;
4112;SDS011;2070;51.042;7.056;2022-08-07T06:39:08;1.73;;;0.73;;
4112;SDS011;2070;51.042;7.056;2022-08-07T06:41:34;1.47;;;0.70;;
4112;SDS011;2070;51.042;7.056;2022-08-07T06:44:02;3.00;;;0.83;;
4112;SDS011;2070;51.042;7.056;2022-08-07T06:46:28;1.00;;;0.70;;
4112;SDS011;2070;51.042;7.056;2022-08-07T06:48:53;1.30;;;0.67;;
4112;SDS011;2070;51.042;7.056;2022-08-07T06:51:19;2.33;;;1.00;;
4112;SDS011;2070;51.042;7.056;2022-08-07T06:53:46;2.17;;;0.83;;
4112;SDS011;2070;51.042;7.056;2022-08-07T06:56:12;2.37;;;0.77;;
4112;SDS011;2070;51.042;7.056;2022-08-07T06:58:37;1.30;;;1.20;;
4112;SDS011;2070;51.042;7.056;2022-08-07T07:01:05;0.80;;;0.50;;
4112;SDS011;2070;51.042;7.056;2022-08-07T07:03:32;1.37;;;0.70;;
4112;SDS011;2070;51.042;7.056;2022-08-07T07:05:57;1.53;;;0.80;;
4112;SDS011;2070;51.042;7.056;2022-08-07T07:08:23;1.00;;;0.70;;
4112;SDS011;2070;51.042;7.056;2022-08-07T07:10:49;0.90;;;0.57;;
4112;SDS011;2070;51.042;7.056;2022-08-07T07:13:18;0.97;;;0.80;;
4112;SDS011;2070;51.042;7.056;2022-08-07T07:15:47;0.87;;;0.70;;
4112;SDS011;2070;51.042;7.056;2022-08-07T07:18:29;1.10;;;0.70;;
4112;SDS011;2070;51.042;7.056;2022-08-07T07:20:58;0.93;;;0.67;;
4112;SDS011;2070;51.042;7.056;2022-08-07T07:23:25;1.10;;;0.90;;
4112;SDS011;2070;51.042;7.056;2022-08-07T07:25:51;1.10;;;0.70;;
4112;SDS011;2070;51.042;7.056;2022-08-07T07:28:40;1.83;;;0.70;;
4112;SDS011;2070;51.042;7.056;2022-08-07T07:31:11;0.90;;;0.60;;
4112;SDS011;2070;51.042;7.056;2022-08-07T07:33:37;0.93;;;0.60;;
4112;SDS011;2070;51.042;7.056;2022-08-07T07:36:03;2.43;;;0.97;;
4112;SDS011;2070;51.042;7.056;2022-08-07T07:38:29;4.37;;;0.80;;
4112;SDS011;2070;51.042;7.056;2022-08-07T07:40:55;1.00;;;0.60;;
4112;SDS011;2070;51.042;7.056;2022-08-07T07:43:21;1.00;;;0.70;;
4112;SDS011;2070;51.042;7.056;2022-08-07T07:45:47;1.40;;;0.63;;
4112;SDS011;2070;51.042;7.056;2022-08-07T07:48:14;9.80;;;0.80;;
4112;SDS011;2070;51.042;7.056;2022-08-07T07:50:40;1.20;;;0.70;;
4112;SDS011;2070;51.042;7.056;2022-08-07T07:53:06;1.13;;;0.60;;
4112;SDS011;2070;51.042;7.056;2022-08-07T07:55:31;1.37;;;0.87;;
4112;SDS011;2070;51.042;7.056;2022-08-07T07:57:57;1.30;;;0.73;;
4112;SDS011;2070;51.042;7.056;2022-08-07T08:00:23;3.87;;;1.07;;
4112;SDS011;2070;51.042;7.056;2022-08-07T08:02:50;1.57;;;0.67;;
4112;SDS011;2070;51.042;7.056;2022-08-07T08:05:17;5.57;;;1.77;;
4112;SDS011;2070;51.042;7.056;2022-08-07T08:07:42;7.03;;;1.80;;
4112;SDS011;2070;51.042;7.056;2022-08-07T08:10:08;3.30;;;1.20;;
4112;SDS011;2070;51.042;7.056;2022-08-07T08:12:34;3.77;;;0.87;;
4112;SDS011;2070;51.042;7.056;2022-08-07T08:14:59;7.17;;;1.87;;
4112;SDS011;2070;51.042;7.056;2022-08-07T08:17:24;5.47;;;0.83;;
4112;SDS011;2070;51.042;7.056;2022-08-07T08:19:52;2.70;;;1.10;;
4112;SDS011;2070;51.042;7.056;2022-08-07T08:22:17;14.80;;;6.07;;
4112;SDS011;2070;51.042;7.056;2022-08-07T08:25:03;5.53;;;1.03;;
4112;SDS011;2070;51.042;7.056;2022-08-07T08:27:49;8.00;;;1.47;;
4112;SDS011;2070;51.042;7.056;2022-08-07T08:30:14;11.73;;;1.07;;
4112;SDS011;2070;51.042;7.056;2022-08-07T08:32:40;4.00;;;0.97;;
4112;SDS011;2070;51.042;7.056;2022-08-07T08:35:08;7.00;;;1.47;;
4112;SDS011;2070;51.042;7.056;2022-08-07T08:37:35;7.93;;;1.33;;
4112;SDS011;2070;51.042;7.056;2022-08-07T08:40:00;7.70;;;1.23;;
4112;SDS011;2070;51.042;7.056;2022-08-07T08:42:37;17.70;;;2.27;;
4112;SDS011;2070;51.042;7.056;2022-08-07T08:45:17;12.73;;;1.90;;
4112;SDS011;2070;51.042;7.056;2022-08-07T08:50:21;4.00;;;0.93;;
4112;SDS011;2070;51.042;7.056;2022-08-07T08:58:05;11.83;;;1.77;;
4112;SDS011;2070;51.042;7.056;2022-08-07T09:00:35;11.67;;;1.70;;
4112;SDS011;2070;51.042;7.056;2022-08-07T09:03:14;7.37;;;1.47;;
4112;SDS011;2070;51.042;7.056;2022-08-07T09:05:53;4.00;;;0.90;;
4112;SDS011;2070;51.042;7.056;2022-08-07T09:08:25;4.57;;;0.97;;
4112;SDS011;2070;51.042;7.056;2022-08-07T09:13:31;2.00;;;0.67;;
4112;SDS011;2070;51.042;7.056;2022-08-07T09:16:04;6.70;;;1.10;;
4112;SDS011;2070;51.042;7.056;2022-08-07T09:27:00;16.43;;;2.23;;
4112;SDS011;2070;51.042;7.056;2022-08-07T09:29:08;22.77;;;3.17;;
4112;SDS011;2070;51.042;7.056;2022-08-07T09:31:41;22.60;;;2.83;;
4112;SDS011;2070;51.042;7.056;2022-08-07T09:34:10;26.70;;;3.13;;
4112;SDS011;2070;51.042;7.056;2022-08-07T09:36:38;11.40;;;1.80;;
4112;SDS011;2070;51.042;7.056;2022-08-07T09:44:48;15.53;;;2.33;;
4112;SDS011;2070;51.042;7.056;2022-08-07T09:47:32;18.13;;;2.63;;
4112;SDS011;2070;51.042;7.056;2022-08-07T09:52:47;26.70;;;2.87;;
4112;SDS011;2070;51.042;7.056;2022-08-07T10:00:23;14.50;;;2.33;;
4112;SDS011;2070;51.042;7.056;2022-08-07T10:02:55;18.57;;;2.40;;
4112;SDS011;2070;51.042;7.056;2022-08-07T10:10:44;19.20;;;2.77;;
4112;SDS011;2070;51.042;7.056;2022-08-07T10:13:16;19.23;;;2.73;;
4112;SDS011;2070;51.042;7.056;2022-08-07T10:23:32;14.30;;;2.37;;
4112;SDS011;2070;51.042;7.056;2022-08-07T10:38:42;20.13;;;2.90;;
4112;SDS011;2070;51.042;7.056;2022-08-07T10:41:24;17.83;;;2.43;;
4112;SDS011;2070;51.042;7.056;2022-08-07T10:43:55;18.77;;;2.40;;
4112;SDS011;2070;51.042;7.056;2022-08-07T10:46:24;26.30;;;3.43;;
4112;SDS011;2070;51.042;7.056;2022-08-07T10:51:22;11.77;;;2.00;;
4112;SDS011;2070;51.042;7.056;2022-08-07T10:56:22;5.83;;;1.43;;
4112;SDS011;2070;51.042;7.056;2022-08-07T11:01:24;4.50;;;1.40;;
4112;SDS011;2070;51.042;7.056;2022-08-07T11:06:22;7.80;;;1.70;;
4112;SDS011;2070;51.042;7.056;2022-08-07T11:08:52;4.77;;;1.33;;
4112;SDS011;2070;51.042;7.056;2022-08-07T11:13:46;7.87;;;1.73;;
4112;SDS011;2070;51.042;7.056;2022-08-07T11:16:21;8.17;;;2.40;;
4112;SDS011;2070;51.042;7.056;2022-08-07T11:21:41;3.73;;;1.07;;
4112;SDS011;2070;51.042;7.056;2022-08-07T11:26:40;5.37;;;1.60;;
4112;SDS011;2070;51.042;7.056;2022-08-07T11:29:10;11.70;;;2.73;;
4112;SDS011;2070;51.042;7.056;2022-08-07T11:32:22;5.73;;;1.30;;
4112;SDS011;2070;51.042;7.056;2022-08-07T11:34:38;6.07;;;1.97;;
4112;SDS011;2070;51.042;7.056;2022-08-07T11:37:14;5.77;;;1.67;;
4112;SDS011;2070;51.042;7.056;2022-08-07T11:39:58;8.03;;;1.90;;
4112;SDS011;2070;51.042;7.056;2022-08-07T11:52:54;3.87;;;1.40;;
4112;SDS011;2070;51.042;7.056;2022-08-07T12:07:56;5.07;;;1.47;;
4112;SDS011;2070;51.042;7.056;2022-08-07T12:10:26;6.60;;;2.00;;
4112;SDS011;2070;51.042;7.056;2022-08-07T12:13:03;4.80;;;1.57;;
4112;SDS011;2070;51.042;7.056;2022-08-07T12:15:31;5.47;;;1.73;;
4112;SDS011;2070;51.042;7.056;2022-08-07T12:23:15;3.67;;;1.30;;
4112;SDS011;2070;51.042;7.056;2022-08-07T12:28:22;9.40;;;1.10;;
4112;SDS011;2070;51.042;7.056;2022-08-07T12:30:49;4.07;;;1.33;;
4112;SDS011;2070;51.042;7.056;2022-08-07T12:33:16;6.23;;;1.73;;
4112;SDS011;2070;51.042;7.056;2022-08-07T12:35:43;4.73;;;1.80;;
4112;SDS011;2070;51.042;7.056;2022-08-07T12:38:09;6.43;;;1.73;;
4112;SDS011;2070;51.042;7.056;2022-08-07T12:40:36;11.23;;;2.73;;
4112;SDS011;2070;51.042;7.056;2022-08-07T12:43:03;7.07;;;1.87;;
4112;SDS011;2070;51.042;7.056;2022-08-07T12:45:38;3.97;;;1.37;;
4112;SDS011;2070;51.042;7.056;2022-08-07T12:48:13;7.03;;;1.70;;
4112;SDS011;2070;51.042;7.056;2022-08-07T12:53:17;5.60;;;1.60;;
4112;SDS011;2070;51.042;7.056;2022-08-07T12:58:28;7.97;;;1.60;;
4112;SDS011;2070;51.042;7.056;2022-08-07T13:01:05;6.17;;;1.57;;
4112;SDS011;2070;51.042;7.056;2022-08-07T13:08:58;5.03;;;1.37;;
4112;SDS011;2070;51.042;7.056;2022-08-07T13:16:54;4.93;;;1.50;;
4112;SDS011;2070;51.042;7.056;2022-08-07T13:19:38;7.47;;;1.90;;
4112;SDS011;2070;51.042;7.056;2022-08-07T13:22:17;6.97;;;1.63;;
4112;SDS011;2070;51.042;7.056;2022-08-07T13:24:44;10.23;;;1.43;;
4112;SDS011;2070;51.042;7.056;2022-08-07T13:27:17;3.83;;;0.93;;
4112;SDS011;2070;51.042;7.056;2022-08-07T13:29:57;3.10;;;1.13;;
4112;SDS011;2070;51.042;7.056;2022-08-07T13:35:13;4.27;;;1.40;;
4112;SDS011;2070;51.042;7.056;2022-08-07T13:42:50;4.87;;;1.50;;
4112;SDS011;2070;51.042;7.056;2022-08-07T13:45:16;9.00;;;1.60;;
4112;SDS011;2070;51.042;7.056;2022-08-07T13:47:42;4.10;;;1.17;;
4112;SDS011;2070;51.042;7.056;2022-08-07T13:50:09;5.77;;;1.53;;
4112;SDS011;2070;51.042;7.056;2022-08-07T13:52:38;3.77;;;1.17;;
4112;SDS011;2070;51.042;7.056;2022-08-07T13:55:09;3.27;;;1.00;;
4112;SDS011;2070;51.042;7.056;2022-08-07T13:57:35;1.60;;;0.80;;
4112;SDS011;2070;51.042;7.056;2022-08-07T14:00:02;4.77;;;1.40;;
4112;SDS011;2070;51.042;7.056;2022-08-07T14:02:30;5.67;;;1.70;;
4112;SDS011;2070;51.042;7.056;2022-08-07T14:04:59;5.23;;;1.47;;
4112;SDS011;2070;51.042;7.056;2022-08-07T14:07:29;6.87;;;1.70;;
4112;SDS011;2070;51.042;7.056;2022-08-07T14:09:56;13.37;;;2.47;;
4112;SDS011;2070;51.042;7.056;2022-08-07T14:15:16;8.60;;;2.13;;
4112;SDS011;2070;51.042;7.056;2022-08-07T14:17:42;5.37;;;1.27;;
4112;SDS011;2070;51.042;7.056;2022-08-07T14:20:11;7.37;;;1.10;;
4112;SDS011;2070;51.042;7.056;2022-08-07T14:22:39;6.47;;;1.67;;
4112;SDS011;2070;51.042;7.056;2022-08-07T14:25:07;7.17;;;1.67;;
4112;SDS011;2070;51.042;7.056;2022-08-07T14:27:37;4.33;;;1.17;;
4112;SDS011;2070;51.042;7.056;2022-08-07T14:30:06;8.73;;;1.90;;
4112;SDS011;2070;51.042;7.056;2022-08-07T14:33:17;9.27;;;2.10;;
4112;SDS011;2070;51.042;7.056;2022-08-07T14:35:24;13.00;;;2.90;;
4112;SDS011;2070;51.042;7.056;2022-08-07T14:37:51;4.50;;;1.27;;
4112;SDS011;2070;51.042;7.056;2022-08-07T14:40:19;14.13;;;2.53;;
4112;SDS011;2070;51.042;7.056;2022-08-07T14:42:44;5.80;;;1.33;;
4112;SDS011;2070;51.042;7.056;2022-08-07T14:45:15;5.13;;;1.30;;
4112;SDS011;2070;51.042;7.056;2022-08-07T14:47:41;5.23;;;1.37;;
4112;SDS011;2070;51.042;7.056;2022-08-07T14:50:07;3.97;;;1.13;;
4112;SDS011;2070;51.042;7.056;2022-08-07T14:52:35;10.60;;;2.63;;
4112;SDS011;2070;51.042;7.056;2022-08-07T14:55:02;15.77;;;3.40;;
4112;SDS011;2070;51.042;7.056;2022-08-07T14:57:27;12.50;;;2.53;;
4112;SDS011;2070;51.042;7.056;2022-08-07T14:59:55;11.50;;;2.43;;
4112;SDS011;2070;51.042;7.056;2022-08-07T15:02:21;12.53;;;2.70;;
4112;SDS011;2070;51.042;7.056;2022-08-07T15:04:47;8.40;;;2.07;;
4112;SDS011;2070;51.042;7.056;2022-08-07T15:07:20;9.07;;;1.97;;
4112;SDS011;2070;51.042;7.056;2022-08-07T15:09:48;12.70;;;2.00;;
4112;SDS011;2070;51.042;7.056;2022-08-07T15:12:14;4.77;;;1.70;;
4112;SDS011;2070;51.042;7.056;2022-08-07T15:14:46;3.87;;;1.23;;
4112;SDS011;2070;51.042;7.056;2022-08-07T15:17:14;7.13;;;2.07;;
4112;SDS011;2070;51.042;7.056;2022-08-07T15:19:46;5.13;;;1.50;;
4112;SDS011;2070;51.042;7.056;2022-08-07T15:22:13;6.83;;;1.70;;
4112;SDS011;2070;51.042;7.056;2022-08-07T15:24:40;4.00;;;1.20;;
4112;SDS011;2070;51.042;7.056;2022-08-07T15:29:39;3.67;;;1.17;;
4112;SDS011;2070;51.042;7.056;2022-08-07T15:32:04;7.77;;;2.03;;
4112;SDS011;2070;51.042;7.056;2022-08-07T15:34:42;8.17;;;1.40;;
4112;SDS011;2070;51.042;7.056;2022-08-07T15:37:07;3.63;;;1.20;;
4112;SDS011;2070;51.042;7.056;2022-08-07T15:39:39;4.90;;;1.53;;
4112;SDS011;2070;51.042;7.056;2022-08-07T15:42:05;9.67;;;2.40;;
4112;SDS011;2070;51.042;7.056;2022-08-07T15:44:41;10.40;;;2.50;;
4112;SDS011;2070;51.042;7.056;2022-08-07T15:47:07;9.43;;;2.63;;
4112;SDS011;2070;51.042;7.056;2022-08-07T15:49:33;6.53;;;1.97;;
4112;SDS011;2070;51.042;7.056;2022-08-07T15:52:00;12.37;;;2.73;;
4112;SDS011;2070;51.042;7.056;2022-08-07T15:54:33;8.20;;;2.10;;
4112;SDS011;2070;51.042;7.056;2022-08-07T15:56:58;7.80;;;2.30;;
4112;SDS011;2070;51.042;7.056;2022-08-07T15:59:25;3.53;;;1.10;;
4112;SDS011;2070;51.042;7.056;2022-08-07T16:01:51;4.57;;;1.27;;
4112;SDS011;2070;51.042;7.056;2022-08-07T16:04:18;4.37;;;1.57;;
4112;SDS011;2070;51.042;7.056;2022-08-07T16:06:48;4.77;;;1.43;;
4112;SDS011;2070;51.042;7.056;2022-08-07T16:14:43;3.60;;;1.33;;
4112;SDS011;2070;51.042;7.056;2022-08-07T16:25:42;1.80;;;1.33;;
4112;SDS011;2070;51.042;7.056;2022-08-07T16:28:41;6.00;;;2.23;;
4112;SDS011;2070;51.042;7.056;2022-08-07T16:30:55;4.50;;;1.40;;
4112;SDS011;2070;51.042;7.056;2022-08-07T16:33:26;2.60;;;1.00;;
4112;SDS011;2070;51.042;7.056;2022-08-07T16:38:58;2.63;;;1.27;;
4112;SDS011;2070;51.042;7.056;2022-08-07T16:41:40;4.57;;;1.60;;
4112;SDS011;2070;51.042;7.056;2022-08-07T16:51:39;4.77;;;1.50;;
4112;SDS011;2070;51.042;7.056;2022-08-07T17:01:34;2.20;;;0.90;;
4112;SDS011;2070;51.042;7.056;2022-08-07T17:04:03;2.40;;;0.90;;
4112;SDS011;2070;51.042;7.056;2022-08-07T17:06:41;1.57;;;0.90;;
4112;SDS011;2070;51.042;7.056;2022-08-07T17:11:37;4.23;;;1.27;;
4112;SDS011;2070;51.042;7.056;2022-08-07T17:14:15;8.10;;;7.27;;
4112;SDS011;2070;51.042;7.056;2022-08-07T17:19:20;3.00;;;1.27;;
4112;SDS011;2070;51.042;7.056;2022-08-07T17:21:46;1.10;;;0.60;;
4112;SDS011;2070;51.042;7.056;2022-08-07T17:31:58;3.13;;;1.23;;
4112;SDS011;2070;51.042;7.056;2022-08-07T17:34:27;2.20;;;1.03;;
4112;SDS011;2070;51.042;7.056;2022-08-07T17:36:53;3.60;;;1.37;;
4112;SDS011;2070;51.042;7.056;2022-08-07T17:42:20;4.10;;;1.13;;
4112;SDS011;2070;51.042;7.056;2022-08-07T17:44:51;1.60;;;1.30;;
4112;SDS011;2070;51.042;7.056;2022-08-07T17:49:56;2.40;;;1.00;;
4112;SDS011;2070;51.042;7.056;2022-08-07T17:54:53;5.37;;;1.80;;
4112;SDS011;2070;51.042;7.056;2022-08-07T17:57:30;3.43;;;0.70;;
4112;SDS011;2070;51.042;7.056;2022-08-07T17:59:59;4.67;;;1.20;;
4112;SDS011;2070;51.042;7.056;2022-08-07T18:02:32;4.13;;;1.47;;
4112;SDS011;2070;51.042;7.056;2022-08-07T18:05:04;2.33;;;0.90;;
4112;SDS011;2070;51.042;7.056;2022-08-07T18:07:40;3.33;;;1.30;;
4112;SDS011;2070;51.042;7.056;2022-08-07T18:15:25;3.33;;;1.37;;
4112;SDS011;2070;51.042;7.056;2022-08-07T18:17:56;2.80;;;1.37;;
4112;SDS011;2070;51.042;7.056;2022-08-07T18:20:25;5.50;;;1.30;;
4112;SDS011;2070;51.042;7.056;2022-08-07T18:23:00;2.47;;;1.03;;
4112;SDS011;2070;51.042;7.056;2022-08-07T18:25:32;4.67;;;1.63;;
4112;SDS011;2070;51.042;7.056;2022-08-07T18:28:14;3.00;;;0.97;;
4112;SDS011;2070;51.042;7.056;2022-08-07T18:30:47;2.10;;;0.97;;
4112;SDS011;2070;51.042;7.056;2022-08-07T18:36:01;1.40;;;1.03;;
4112;SDS011;2070;51.042;7.056;2022-08-07T18:51:18;6.87;;;0.97;;
4112;SDS011;2070;51.042;7.056;2022-08-07T18:56:47;5.20;;;1.50;;
4112;SDS011;2070;51.042;7.056;2022-08-07T19:02:04;1.50;;;0.93;;
4112;SDS011;2070;51.042;7.056;2022-08-07T19:07:24;1.53;;;0.87;;
4112;SDS011;2070;51.042;7.056;2022-08-07T19:10:07;1.43;;;1.10;;